Terminal Aerodrome Forecast
Issued by NWS Shreveport, LA

Home | Current Version | Previous Version | Text Only | Print | Product List | Glossary On
Versions: 1 2 3 4 5 6 7 8 9 10 11 12 13 14
000
FTUS44 KSHV 021700
TAFMLU
TAF
KMLU 021740Z 0218/0318 02011KT P6SM OVC006
      TEMPO 0218/0222 3SM -DZ BR OVC004
     FM030000 04005KT 3SM BR OVC004
     FM030600 04003KT 1/4SM FG OVC003
     FM031500 16004KT 1/2SM FG OVC004=

USA.gov is the U.S. government's official web portal to all federal, state and local government web resources and services.